Time;durP1;ratioP1;P1;durP2;ratioP2;P2;SDS_P1;SDS_P2;PMS_P1;PMS_P2;Temp;Humidity;BMP_temperature;BMP_pressure;BME280_temperature;BME280_humidity;BME280_pressure;Samples;Min_cycle;Max_cycle;Signal;HPM_P1;HPM_P2
2022/11/24 00:01:25;;;;;;;25.00;3.10;;;7.30;99.90;;;6.64;100.00;96856.88;5040651;28;20064;-70
2022/11/24 00:03:58;;;;;;;19.00;2.97;;;7.30;99.90;;;6.67;100.00;96846.41;5052764;28;20048;-71
2022/11/24 00:06:26;;;;;;;21.30;4.03;;;7.40;99.90;;;6.74;100.00;96849.59;5058873;28;20068;-71
2022/11/24 00:08:54;;;;;;;19.88;3.35;;;7.40;99.90;;;6.72;100.00;96854.81;5054769;28;20052;-71
2022/11/24 00:11:31;;;;;;;24.70;4.32;;;7.50;99.90;;;6.70;100.00;96860.06;5042461;28;20142;-71
2022/11/24 00:13:58;;;;;;;17.90;3.30;;;7.40;99.90;;;6.69;100.00;96840.31;5042689;28;20049;-71
2022/11/24 00:16:28;;;;;;;21.38;3.72;;;7.40;99.90;;;6.76;100.00;96855.53;5038716;28;20049;-71
2022/11/24 00:18:59;;;;;;;34.47;4.88;;;7.50;99.90;;;6.79;100.00;96850.25;5042028;28;20073;-72
2022/11/24 00:21:28;;;;;;;18.27;3.67;;;7.50;99.90;;;6.80;100.00;96857.13;5054664;28;20045;-71
2022/11/24 00:23:56;;;;;;;21.92;4.07;;;7.50;99.90;;;6.78;100.00;96864.06;5042232;28;20430;-71
2022/11/24 00:26:27;;;;;;;21.40;4.47;;;7.50;99.90;;;6.81;100.00;96874.25;5046059;28;20043;-71
2022/11/24 00:28:57;;;;;;;23.63;4.80;;;7.50;99.90;;;6.83;100.00;96868.13;5039875;28;20454;-71
2022/11/24 00:31:25;;;;;;;22.33;4.85;;;7.50;99.90;;;6.90;100.00;96873.91;5044126;28;20470;-71
2022/11/24 00:33:58;;;;;;;19.40;4.65;;;7.50;99.90;;;6.76;100.00;96889.91;5042877;28;20049;-71
2022/11/24 00:36:27;;;;;;;17.45;4.13;;;7.50;99.90;;;6.83;100.00;96887.94;5043006;28;20045;-71
2022/11/24 00:39:00;;;;;;;23.80;6.25;;;7.60;99.90;;;6.88;100.00;96894.59;5042948;28;20414;-70
2022/11/24 00:41:29;;;;;;;25.65;5.78;;;7.60;99.90;;;6.82;100.00;96886.25;5041860;28;20053;-71
2022/11/24 00:43:56;;;;;;;30.60;5.70;;;7.60;99.90;;;6.78;100.00;96889.88;5045583;28;20056;-71
2022/11/24 00:46:24;;;;;;;15.73;4.03;;;7.60;99.90;;;6.88;100.00;96898.91;5040708;28;20517;-72
2022/11/24 00:48:52;;;;;;;17.45;4.47;;;7.60;99.90;;;6.87;100.00;96900.66;5041501;28;20703;-71
2022/11/24 00:51:22;;;;;;;17.40;4.68;;;7.60;99.90;;;6.85;100.00;96896.47;5040987;28;20046;-72
2022/11/24 00:53:49;;;;;;;17.58;4.35;;;7.60;99.90;;;6.81;100.00;96908.63;5056000;28;20059;-71
2022/11/24 00:56:17;;;;;;;20.08;3.67;;;;;;;6.86;100.00;96906.69;5045520;28;20103;-71
2022/11/24 00:58:44;;;;;;;26.13;4.55;;;7.50;99.90;;;6.89;100.00;96901.44;5042146;28;20052;-72
2022/11/24 01:01:16;;;;;;;17.55;4.32;;;7.50;99.90;;;6.80;100.00;96911.28;5040004;28;20820;-71
2022/11/24 01:03:45;;;;;;;16.95;3.60;;;7.60;99.90;;;6.76;100.00;96918.28;5040432;28;20049;-72
2022/11/24 01:06:19;;;;;;;15.13;3.40;;;7.60;99.90;;;6.84;100.00;96895.63;5027449;28;20103;-71
2022/11/24 01:08:47;;;;;;;17.67;3.50;;;7.60;99.90;;;6.82;100.00;96914.63;5056378;28;21518;-72
2022/11/24 01:11:23;;;;;;;13.45;3.30;;;7.70;99.90;;;6.80;100.00;96911.28;5025077;28;20167;-72
2022/11/24 01:13:57;;;;;;;19.63;3.58;;;7.70;99.90;;;6.77;100.00;96913.97;5043135;28;20065;-71
2022/11/24 01:16:30;;;;;;;18.23;4.57;;;7.60;99.90;;;6.84;100.00;96916.25;5044186;28;20056;-71
2022/11/24 01:18:57;;;;;;;23.98;3.88;;;7.50;99.90;;;6.82;100.00;96923.22;5040221;28;20370;-72
2022/11/24 01:21:24;;;;;;;17.88;3.35;;;7.50;99.90;;;6.77;100.00;96919.13;5041638;28;20499;-71
2022/11/24 01:23:52;;;;;;;14.00;3.15;;;7.50;99.90;;;6.84;100.00;96908.53;5046464;28;20946;-71
2022/11/24 01:26:21;;;;;;;19.73;3.90;;;7.50;99.90;;;6.72;100.00;96914.13;5043059;28;20059;-71
2022/11/24 01:28:55;;;;;;;12.43;3.40;;;7.60;99.90;;;6.80;100.00;96906.13;5041804;28;20585;-69
2022/11/24 01:31:24;;;;;;;18.20;3.28;;;7.50;99.90;;;6.75;100.00;96916.63;5042739;28;20148;-70
2022/11/24 01:33:52;;;;;;;15.65;3.28;;;7.50;99.90;;;6.76;100.00;96907.13;5059999;28;20048;-72
2022/11/24 01:36:20;;;;;;;17.85;3.70;;;7.50;99.90;;;6.78;100.00;96910.50;5043414;28;20080;-71
2022/11/24 01:38:47;;;;;;;19.15;3.45;;;7.40;99.90;;;6.74;100.00;96899.44;5042218;28;20079;-71
2022/11/24 01:41:18;;;;;;;20.25;4.25;;;7.50;99.90;;;6.61;100.00;96916.28;5045508;28;20076;-71
2022/11/24 01:43:46;;;;;;;13.30;3.00;;;7.50;99.90;;;6.67;100.00;96919.47;5045636;28;20049;-70
2022/11/24 01:46:25;;;;;;;17.13;3.28;;;7.50;99.90;;;6.66;100.00;96922.09;5041916;28;20178;-71
2022/11/24 01:49:10;;;;;;;21.27;3.42;;;7.40;99.90;;;6.72;100.00;96908.97;5037408;28;20094;-72
2022/11/24 01:52:04;;;;;;;24.27;4.45;;;7.50;99.90;;;6.67;100.00;96906.56;5046085;28;20049;-71
2022/11/24 01:54:56;;;;;;;23.92;3.90;;;7.40;99.90;;;6.55;100.00;96917.34;5058868;28;20118;-71
2022/11/24 01:57:27;;;;;;;22.98;3.95;;;7.40;99.90;;;6.64;100.00;96918.75;5044375;28;20128;-71
2022/11/24 02:00:02;;;;;;;15.30;3.38;;;7.40;99.90;;;6.64;100.00;96929.91;5043925;28;20159;-72
2022/11/24 02:02:30;;;;;;;24.60;4.40;;;7.40;99.90;;;6.71;100.00;96920.19;5042654;28;20051;-71
2022/11/24 02:05:02;;;;;;;25.75;3.63;;;7.40;99.90;;;6.61;100.00;96929.16;5040177;28;20053;-71
2022/11/24 02:07:30;;;;;;;19.85;3.30;;;7.40;99.90;;;6.51;100.00;96931.25;5042204;28;20052;-71
2022/11/24 02:10:04;;;;;;;23.60;4.05;;;7.40;99.90;;;6.55;100.00;96930.25;5043667;28;20048;-71
2022/11/24 02:12:32;;;;;;;23.08;3.40;;;7.40;99.90;;;6.61;100.00;96914.53;5039604;28;20513;-71
2022/11/24 02:15:00;;;;;;;16.90;3.25;;;7.40;99.90;;;6.51;100.00;96927.84;5041607;28;20052;-72
2022/11/24 02:17:26;;;;;;;21.02;2.83;;;7.40;99.90;;;6.53;100.00;96924.31;5042997;28;20056;-72
2022/11/24 02:19:58;;;;;;;23.75;3.72;;;7.40;99.90;;;6.44;100.00;96928.06;5041109;28;20061;-71
2022/11/24 02:22:35;;;;;;;18.60;3.08;;;;;;;6.57;100.00;96915.56;5056697;28;20064;-71
2022/11/24 02:25:18;;;;;;;19.63;3.45;;;7.40;99.90;;;6.48;100.00;96921.06;5042143;28;21365;-71
2022/11/24 02:27:45;;;;;;;22.17;3.40;;;7.30;99.90;;;6.50;100.00;96911.53;5044223;28;20044;-72
2022/11/24 02:30:19;;;;;;;22.00;3.13;;;7.30;99.90;;;6.43;100.00;96922.94;5052803;28;20099;-72
2022/11/24 02:32:46;;;;;;;22.67;3.95;;;7.30;99.90;;;6.36;100.00;96927.47;5042595;28;20208;-71
2022/11/24 02:35:15;;;;;;;20.40;3.75;;;7.30;99.90;;;6.34;100.00;96931.88;5046218;28;20049;-72
2022/11/24 02:37:42;;;;;;;24.15;3.72;;;7.40;99.90;;;6.42;100.00;96931.59;5042986;28;20506;-70
2022/11/24 02:40:09;;;;;;;26.48;3.80;;;7.30;99.90;;;6.53;100.00;96926.03;5043502;28;20140;-70
2022/11/24 02:42:42;;;;;;;25.65;3.92;;;7.30;99.90;;;6.49;100.00;96933.88;5042242;28;20052;-72
2022/11/24 02:45:10;;;;;;;;;;;7.30;99.90;;;6.50;100.00;96952.78;5059273;28;20064;-71
2022/11/24 02:47:37;;;;;;;22.90;3.42;;;7.30;99.90;;;6.48;100.00;96944.25;5046318;28;19928;-72
2022/11/24 02:50:05;;;;;;;20.42;3.08;;;7.30;99.90;;;6.63;100.00;96928.19;5044759;28;20056;-71
2022/11/24 02:52:32;;;;;;;24.63;3.83;;;7.30;99.90;;;6.65;100.00;96921.25;5021963;28;20426;-71
2022/11/24 02:54:59;;;;;;;27.40;3.55;;;7.30;99.90;;;6.52;100.00;96922.59;5024848;28;20052;-71
2022/11/24 02:57:25;;;;;;;24.67;3.92;;;7.30;99.90;;;6.50;100.00;96914.13;5043196;28;20494;-72
2022/11/24 02:59:52;;;;;;;25.77;3.78;;;7.30;99.90;;;6.54;100.00;96910.50;5044208;28;20071;-72
2022/11/24 03:02:19;;;;;;;23.33;3.38;;;7.30;99.90;;;6.42;100.00;96922.09;5044634;28;20053;-71
2022/11/24 03:04:46;;;;;;;24.45;3.97;;;7.30;99.90;;;6.42;100.00;96910.97;5040974;28;20125;-72
2022/11/24 03:07:13;;;;;;;24.27;3.78;;;7.30;99.90;;;6.32;100.00;96935.38;5042337;28;20063;-72
2022/11/24 03:09:40;;;;;;;21.48;3.40;;;7.30;99.90;;;6.54;100.00;96927.72;5041501;28;20053;-71
2022/11/24 03:12:07;;;;;;;26.38;3.92;;;7.40;99.90;;;6.64;100.00;96934.22;5040976;28;20049;-71
2022/11/24 03:14:34;;;;;;;27.25;3.47;;;7.30;99.90;;;6.68;100.00;96943.50;5041930;28;20069;-72
2022/11/24 03:17:02;;;;;;;20.52;3.45;;;7.30;99.90;;;6.69;100.00;96937.47;5043540;28;20065;-70
2022/11/24 03:19:29;;;;;;;28.83;4.28;;;7.30;99.90;;;6.66;100.00;96946.16;5040530;28;20058;-71
2022/11/24 03:21:56;;;;;;;28.73;3.15;;;7.20;99.90;;;6.48;100.00;96959.72;5041770;28;20836;-71
2022/11/24 03:24:23;;;;;;;25.00;3.53;;;7.30;99.90;;;6.53;100.00;96952.66;5042695;28;20040;-72
2022/11/24 03:26:50;;;;;;;33.67;4.07;;;7.30;99.90;;;6.51;100.00;96941.56;5044438;28;20075;-72
2022/11/24 03:29:17;;;;;;;26.70;3.53;;;7.30;99.90;;;6.55;100.00;96935.41;5040693;28;20091;-70
2022/11/24 03:31:44;;;;;;;26.00;4.63;;;7.30;99.90;;;6.64;100.00;96947.97;5043798;28;20045;-72
2022/11/24 03:34:11;;;;;;;32.63;4.43;;;7.30;99.90;;;6.70;100.00;96937.41;5042206;28;20535;-70
2022/11/24 03:36:37;;;;;;;25.73;4.55;;;7.30;99.90;;;6.66;100.00;96942.72;5043998;28;20469;-72
2022/11/24 03:39:04;;;;;;;25.48;5.00;;;7.30;99.90;;;6.54;100.00;96959.50;5038079;28;20045;-72
2022/11/24 03:41:31;;;;;;;27.60;3.97;;;7.30;99.90;;;6.59;100.00;96952.44;5039050;28;20060;-72
2022/11/24 03:43:58;;;;;;;38.30;5.60;;;7.30;99.90;;;6.59;100.00;96946.44;5039766;28;20053;-72
2022/11/24 03:46:25;;;;;;;20.52;3.47;;;7.40;99.90;;;6.64;100.00;96941.97;5043155;28;20041;-70
2022/11/24 03:48:52;;;;;;;32.47;5.00;;;7.30;99.90;;;6.56;100.00;96955.13;5040927;28;20041;-72
2022/11/24 03:51:19;;;;;;;27.52;5.05;;;7.40;99.90;;;6.65;100.00;96947.03;5039413;28;20491;-72
2022/11/24 03:53:46;;;;;;;24.20;4.15;;;7.30;99.90;;;6.63;100.00;96945.44;5039977;28;20053;-71
2022/11/24 03:56:13;;;;;;;36.15;4.38;;;7.30;99.90;;;6.55;100.00;96960.34;5042256;28;20151;-71
2022/11/24 03:58:40;;;;;;;28.45;5.13;;;7.30;99.90;;;6.65;100.00;96959.09;5053945;28;20107;-72
2022/11/24 04:01:07;;;;;;;33.53;4.93;;;7.30;99.90;;;6.64;100.00;96955.69;5040818;28;20049;-71
2022/11/24 04:03:34;;;;;;;27.92;4.28;;;7.20;99.90;;;6.55;100.00;96948.28;5042384;28;20040;-72
2022/11/24 04:06:01;;;;;;;34.50;4.85;;;7.30;99.90;;;6.64;100.00;96950.53;5042697;28;20478;-71
2022/11/24 04:08:28;;;;;;;36.47;4.57;;;7.30;99.90;;;6.55;100.00;96939.72;5041793;28;20056;-72
2022/11/24 04:10:55;;;;;;;29.90;4.60;;;7.30;99.90;;;6.69;100.00;96946.03;5036199;28;20045;-72
2022/11/24 04:13:24;;;;;;;26.10;4.88;;;7.30;99.90;;;6.68;100.00;96962.44;5044588;28;20044;-71
2022/11/24 04:15:52;;;;;;;28.20;3.92;;;7.20;99.90;;;6.72;100.00;96963.13;5043191;28;20082;-72
2022/11/24 04:18:19;;;;;;;29.98;3.88;;;7.40;99.90;;;6.64;100.00;96960.84;5040116;28;20160;-70
2022/11/24 04:20:49;;;;;;;33.67;4.00;;;7.40;99.90;;;6.66;100.00;96969.38;5037679;28;20498;-72
2022/11/24 04:23:17;;;;;;;27.75;3.38;;;7.40;99.90;;;6.65;100.00;96967.69;5038228;28;20517;-71
2022/11/24 04:25:43;;;;;;;34.88;4.15;;;7.40;99.90;;;6.70;100.00;96959.78;5039945;28;20669;-72
2022/11/24 04:28:10;;;;;;;31.15;4.63;;;7.40;99.90;;;6.69;100.00;96947.78;5040343;28;20146;-71
2022/11/24 04:30:39;;;;;;;27.77;4.55;;;7.50;99.90;;;6.67;100.00;96967.63;5046894;28;20053;-71
2022/11/24 04:33:05;;;;;;;26.88;4.63;;;7.50;99.90;;;6.82;100.00;96961.03;5057530;28;20840;-72
2022/11/24 04:35:34;;;;;;;40.28;4.47;;;7.40;99.90;;;6.68;100.00;96966.72;5042637;28;20144;-71
2022/11/24 04:38:01;;;;;;;42.65;5.60;;;7.40;99.90;;;6.74;100.00;96981.16;5045692;28;20053;-72
2022/11/24 04:40:29;;;;;;;32.25;4.57;;;7.50;99.90;;;6.76;100.00;96959.56;5042141;28;20044;-71
2022/11/24 04:42:55;;;;;;;33.53;4.07;;;7.50;99.90;;;6.73;100.00;96976.88;5045224;28;20049;-71
2022/11/24 04:45:23;;;;;;;32.38;5.25;;;7.50;99.90;;;6.66;100.00;96986.56;5042626;28;20049;-70
2022/11/24 04:47:50;;;;;;;31.70;4.65;;;7.40;99.90;;;6.62;100.00;96993.59;5046588;28;20059;-72
2022/11/24 04:50:17;;;;;;;34.35;5.43;;;7.30;99.90;;;6.69;100.00;96969.25;5044306;28;20490;-72
2022/11/24 04:52:44;;;;;;;26.52;3.63;;;7.30;99.90;;;6.69;100.00;96979.56;5043213;28;20135;-71
2022/11/24 04:55:11;;;;;;;30.88;3.58;;;7.20;99.90;;;6.66;100.00;96969.38;5045584;28;20055;-71
2022/11/24 04:57:38;;;;;;;24.80;3.75;;;7.10;99.90;;;6.59;100.00;96985.09;5044651;28;20053;-72
2022/11/24 05:00:06;;;;;;;30.42;3.83;;;7.10;99.90;;;6.57;100.00;96977.44;5046235;28;20059;-70
2022/11/24 05:02:33;;;;;;;33.00;4.30;;;7.10;99.90;;;6.56;100.00;96977.50;5044329;28;20046;-72
2022/11/24 05:05:00;;;;;;;34.65;4.40;;;7.20;99.90;;;6.67;100.00;96985.69;5042966;28;20045;-72
2022/11/24 05:07:27;;;;;;;31.50;4.10;;;7.10;99.90;;;6.66;100.00;96984.84;5041768;28;20041;-71
2022/11/24 05:12:39;;;;;;;28.30;3.83;;;7.10;99.90;;;6.54;100.00;96984.44;5042825;28;20057;-72
2022/11/24 05:15:08;;;;;;;29.33;4.35;;;7.10;99.90;;;6.39;100.00;96994.41;5044031;28;20482;-72
2022/11/24 05:17:38;;;;;;;34.53;3.95;;;7.10;99.90;;;6.32;100.00;97008.41;5043794;28;20049;-72
2022/11/24 05:20:06;;;;;;;32.38;4.55;;;7.10;99.90;;;6.24;100.00;97013.81;5043027;28;20482;-72
2022/11/24 05:22:33;;;;;;;36.45;4.53;;;7.10;99.90;;;6.23;100.00;97012.16;5046840;28;20068;-71
2022/11/24 05:25:00;;;;;;;41.40;5.22;;;7.00;99.90;;;6.24;100.00;97025.88;5042717;28;20071;-71
2022/11/24 05:27:28;;;;;;;27.55;4.65;;;7.00;99.90;;;6.25;100.00;97030.97;5043362;28;20054;-71
2022/11/24 05:29:55;;;;;;;31.02;4.05;;;7.00;99.90;;;6.24;100.00;97031.84;5042190;28;20049;-72
2022/11/24 05:32:22;;;;;;;36.80;5.03;;;7.00;99.90;;;6.12;100.00;97031.44;5040593;28;20539;-72
2022/11/24 05:34:49;;;;;;;31.88;4.03;;;7.00;99.90;;;6.17;100.00;97055.31;5043975;28;20052;-71
2022/11/24 05:37:16;;;;;;;25.30;3.75;;;7.00;99.90;;;6.23;100.00;97053.38;5042975;28;20049;-73
2022/11/24 05:39:43;;;;;;;27.15;3.83;;;7.00;99.90;;;6.16;100.00;97057.06;5039086;28;20041;-72
2022/11/24 05:44:56;;;;;;;21.00;3.25;;;7.00;99.90;;;6.18;100.00;97059.56;5035312;28;20075;-72
2022/11/24 05:47:23;;;;;;;16.45;3.42;;;7.00;99.90;;;6.17;100.00;97069.03;5039910;28;20052;-73
2022/11/24 05:49:50;;;;;;;15.75;2.80;;;7.00;99.90;;;6.42;100.00;97052.75;5038368;28;20049;-72
2022/11/24 05:52:17;;;;;;;21.52;3.13;;;7.00;99.90;;;6.38;100.00;97054.56;5035994;28;20231;-71
2022/11/24 05:54:44;;;;;;;14.23;2.83;;;6.90;99.90;;;6.32;100.00;97066.81;5043924;28;20049;-71
2022/11/24 05:57:12;;;;;;;21.42;3.30;;;6.90;99.90;;;6.43;100.00;97050.13;5044469;28;20152;-72
2022/11/24 05:59:39;;;;;;;18.92;2.75;;;7.00;99.90;;;6.39;100.00;97066.59;5060089;28;20053;-72
2022/11/24 06:02:05;;;;;;;15.60;3.20;;;6.90;99.90;;;6.47;100.00;97050.84;5037460;28;20067;-71
2022/11/24 06:04:33;;;;;;;19.73;2.67;;;7.00;99.90;;;6.38;100.00;97059.72;5042011;28;20399;-72
2022/11/24 06:07:00;;;;;;;18.67;2.92;;;6.90;99.90;;;6.42;100.00;97045.84;5044005;28;20056;-71
2022/11/24 06:09:27;;;;;;;23.83;2.85;;;6.90;99.90;;;6.37;100.00;97039.19;5041095;28;20067;-72
2022/11/24 06:11:54;;;;;;;23.70;3.50;;;6.90;99.90;;;6.38;100.00;97049.41;5037083;28;20056;-71
2022/11/24 06:14:21;;;;;;;20.30;3.38;;;6.90;99.90;;;6.36;100.00;97028.00;5042973;28;20532;-72
2022/11/24 06:16:48;;;;;;;18.98;3.03;;;6.90;99.90;;;6.31;100.00;97052.28;5042939;28;20495;-71
2022/11/24 06:19:15;;;;;;;23.98;3.35;;;7.00;99.90;;;6.35;100.00;97052.13;5042393;28;20865;-72
2022/11/24 06:21:42;;;;;;;23.63;3.60;;;6.90;99.90;;;6.36;100.00;97056.38;5041613;28;20514;-69
2022/11/24 06:24:09;;;;;;;20.17;3.58;;;6.90;99.90;;;6.42;100.00;97048.44;5046119;28;20387;-71
2022/11/24 06:26:36;;;;;;;21.05;3.28;;;6.90;99.90;;;6.46;100.00;97044.84;5042379;28;20045;-71
2022/11/24 06:29:03;;;;;;;21.73;3.38;;;6.90;99.90;;;6.38;100.00;97051.16;5041659;28;20049;-71
2022/11/24 06:31:30;;;;;;;19.45;3.53;;;6.90;99.90;;;6.39;100.00;97045.13;5046852;28;20052;-72
2022/11/24 06:33:58;;;;;;;27.30;3.83;;;6.90;99.90;;;6.40;100.00;97059.69;5044022;28;20045;-71
2022/11/24 06:36:25;;;;;;;27.88;4.05;;;6.90;99.90;;;6.45;100.00;97050.06;5043812;28;20521;-71
2022/11/24 06:38:53;;;;;;;24.75;3.08;;;6.90;99.90;;;6.58;100.00;97055.63;5047250;28;20156;-72
2022/11/24 06:41:19;;;;;;;22.88;3.67;;;6.90;99.90;;;6.41;100.00;97074.25;5044732;28;20057;-71
2022/11/24 06:43:46;;;;;;;26.63;3.40;;;7.00;99.90;;;6.49;100.00;97072.25;5038045;28;20169;-72
2022/11/24 06:46:13;;;;;;;21.20;3.35;;;7.00;99.90;;;6.52;100.00;97066.16;5046501;28;20141;-71
2022/11/24 06:48:40;;;;;;;23.45;2.95;;;7.00;99.90;;;6.44;100.00;97081.91;5043783;28;20590;-71
2022/11/24 06:51:11;;;;;;;18.33;3.80;;;7.00;99.90;;;6.57;100.00;97072.00;5044539;28;20041;-71
2022/11/24 06:53:39;;;;;;;26.77;3.90;;;7.00;99.90;;;6.60;100.00;97080.47;5043557;28;20068;-72
2022/11/24 06:56:09;;;;;;;23.00;3.63;;;7.10;99.90;;;6.58;100.00;97091.75;5045608;28;20068;-70
2022/11/24 06:58:45;;;;;;;27.45;3.90;;;7.10;99.90;;;6.54;100.00;97091.00;5049254;28;20045;-71
2022/11/24 07:01:24;;;;;;;21.88;3.05;;;7.10;99.90;;;6.63;100.00;97088.09;5044571;28;20398;-72
2022/11/24 07:03:54;;;;;;;28.92;4.10;;;7.10;99.90;;;6.59;100.00;97091.69;5043071;28;20048;-70
2022/11/24 07:06:23;;;;;;;31.70;3.75;;;7.00;99.90;;;6.54;100.00;97098.72;5048190;28;20127;-72
2022/11/24 07:08:51;;;;;;;19.38;3.22;;;7.10;99.90;;;6.63;100.00;97098.41;5043401;28;20041;-71
2022/11/24 07:11:22;;;;;;;19.90;3.80;;;7.10;99.90;;;6.69;100.00;97100.78;5026290;28;20048;-71
2022/11/24 07:13:50;;;;;;;21.52;3.38;;;7.10;99.90;;;6.61;100.00;97101.94;5041268;28;20057;-71
2022/11/24 07:16:25;;;;;;;26.33;3.83;;;7.10;99.90;;;6.57;100.00;97103.78;5042585;28;20053;-71
2022/11/24 07:18:53;;;;;;;30.80;3.70;;;7.20;99.90;;;6.61;100.00;97112.25;5044646;28;20053;-72
2022/11/24 07:21:22;;;;;;;26.80;3.47;;;7.20;99.90;;;6.64;100.00;97112.16;5040343;28;20049;-71
2022/11/24 07:23:51;;;;;;;26.73;3.75;;;7.20;99.90;;;6.63;100.00;97115.63;5046318;28;20053;-71
2022/11/24 07:26:18;;;;;;;24.83;3.75;;;7.20;99.90;;;6.59;100.00;97127.81;5043564;28;20096;-71
2022/11/24 07:28:46;;;;;;;24.60;3.90;;;7.20;99.90;;;6.64;100.00;97128.47;5038938;28;20463;-72
2022/11/24 07:31:17;;;;;;;18.42;3.85;;;7.20;99.90;;;6.62;100.00;97138.00;5044448;28;20128;-70
2022/11/24 07:33:50;;;;;;;26.27;4.13;;;7.20;99.90;;;6.65;100.00;97134.47;5059126;28;20503;-71
2022/11/24 07:36:17;;;;;;;22.02;3.58;;;7.20;99.90;;;6.63;100.00;97152.56;5043426;28;20045;-71
2022/11/24 07:38:44;;;;;;;26.45;4.20;;;7.20;99.90;;;6.63;100.00;97160.31;5043954;28;20541;-71
2022/11/24 07:41:14;;;;;;;17.45;3.35;;;7.20;99.90;;;6.69;100.00;97151.53;5041302;28;20057;-71
2022/11/24 07:43:41;;;;;;;20.80;3.00;;;7.20;99.90;;;6.69;100.00;97170.41;5039798;28;20045;-71
2022/11/24 07:46:12;;;;;;;26.20;4.50;;;7.20;99.90;;;6.68;100.00;97176.47;5044279;28;20045;-71
2022/11/24 07:48:39;;;;;;;24.17;3.53;;;7.30;99.90;;;6.68;100.00;97188.50;5045580;28;20128;-71
2022/11/24 07:51:07;;;;;;;17.15;3.08;;;7.20;99.90;;;6.75;100.00;97189.16;5038996;28;20041;-71
2022/11/24 07:53:34;;;;;;;17.38;3.05;;;7.20;99.90;;;6.77;100.00;97190.78;5041893;28;20778;-70
2022/11/24 07:56:03;;;;;;;18.55;3.78;;;7.20;99.90;;;6.70;100.00;97199.63;5044524;28;20066;-71
2022/11/24 07:58:34;;;;;;;23.35;3.35;;;7.20;99.90;;;6.89;100.00;97198.13;5045503;28;20060;-71
2022/11/24 08:01:16;;;;;;;23.55;3.47;;;7.30;99.90;;;6.79;100.00;97204.47;5045046;28;20049;-71
2022/11/24 08:03:45;;;;;;;20.90;4.15;;;7.40;99.90;;;6.75;100.00;97194.31;5045484;28;20077;-71
2022/11/24 08:06:13;;;;;;;21.42;3.40;;;7.40;99.90;;;6.92;100.00;97207.50;5050193;28;20107;-72
2022/11/24 08:09:00;;;;;;;20.08;3.67;;;7.40;99.90;;;6.89;100.00;97197.28;5049197;28;20068;-72
2022/11/24 08:11:30;;;;;;;17.67;2.80;;;7.40;99.90;;;7.00;100.00;97196.91;5043903;28;20075;-70
2022/11/24 08:13:57;;;;;;;22.00;3.45;;;7.40;99.90;;;7.06;100.00;97188.97;5043304;28;20056;-70
2022/11/24 08:16:24;;;;;;;19.70;2.83;;;7.50;99.90;;;6.91;100.00;97187.75;5043404;28;20064;-71
2022/11/24 08:18:55;;;;;;;21.95;3.03;;;7.50;99.90;;;6.98;100.00;97191.81;5044636;28;20526;-70
2022/11/24 08:21:23;;;;;;;21.60;3.25;;;7.50;99.90;;;6.88;100.00;97214.50;5042385;28;20053;-71
2022/11/24 08:23:54;;;;;;;17.92;2.85;;;7.50;99.90;;;7.06;100.00;97204.44;5047552;28;20045;-72
2022/11/24 08:26:23;;;;;;;19.50;2.78;;;7.60;99.90;;;7.06;100.00;97205.28;5049731;28;20159;-71
2022/11/24 08:28:55;;;;;;;19.15;3.25;;;7.60;99.90;;;7.09;100.00;97210.34;5045992;28;20067;-71
2022/11/24 08:31:25;;;;;;;21.15;2.90;;;7.70;99.90;;;7.11;100.00;97205.13;5049364;28;20061;-71
2022/11/24 08:33:54;;;;;;;19.27;2.90;;;7.70;99.90;;;7.03;100.00;97220.88;5045277;28;20053;-72
2022/11/24 08:36:21;;;;;;;17.67;2.70;;;7.70;99.90;;;6.95;100.00;97227.19;5042598;28;20049;-71
2022/11/24 08:38:57;;;;;;;19.38;3.38;;;7.80;99.90;;;7.07;100.00;97213.84;5048287;28;20079;-71
2022/11/24 08:41:26;;;;;;;19.67;2.90;;;7.90;99.90;;;7.15;100.00;97224.78;5047463;28;20053;-71
2022/11/24 08:43:54;;;;;;;19.17;3.00;;;7.90;99.90;;;7.23;100.00;97222.78;5045033;28;20068;-72
2022/11/24 08:46:22;;;;;;;22.63;3.63;;;7.90;99.90;;;7.38;100.00;97229.13;5050071;28;20045;-71
2022/11/24 08:48:52;;;;;;;16.20;3.17;;;8.00;99.90;;;7.29;100.00;97242.38;5041934;28;20139;-70
2022/11/24 08:51:24;;;;;;;20.40;3.38;;;8.10;99.90;;;7.13;100.00;97248.03;5028894;28;20053;-70
2022/11/24 08:54:00;;;;;;;15.43;3.00;;;8.20;99.90;;;7.45;100.00;97243.50;5046315;28;20456;-70
2022/11/24 08:56:30;;;;;;;16.52;3.33;;;8.30;99.90;;;7.65;100.00;97247.13;5047957;28;20514;-71
2022/11/24 08:58:58;;;;;;;24.75;3.08;;;8.30;99.90;;;7.48;100.00;97263.22;5047480;28;20059;-71
2022/11/24 09:01:26;;;;;;;20.85;2.80;;;8.20;99.90;;;7.44;100.00;97265.06;5039773;28;20060;-71
2022/11/24 09:03:54;;;;;;;21.83;3.17;;;8.20;99.90;;;7.57;100.00;97260.31;5047765;28;20045;-72
2022/11/24 09:06:25;;;;;;;23.77;3.47;;;8.20;99.90;;;7.51;100.00;97269.13;5046976;28;20063;-71
2022/11/24 09:08:56;;;;;;;22.63;2.90;;;8.30;99.90;;;7.55;100.00;97269.88;5046876;28;20045;-71
2022/11/24 09:11:25;;;;;;;20.70;2.78;;;8.50;99.90;;;7.60;100.00;97280.03;5046399;28;20236;-71
2022/11/24 09:13:54;;;;;;;16.15;2.90;;;8.60;99.90;;;7.76;100.00;97281.16;5045792;28;20467;-71
2022/11/24 09:16:24;;;;;;;20.52;2.58;;;8.80;99.90;;;7.94;100.00;97290.84;5041107;28;20069;-71
2022/11/24 09:19:01;;;;;;;18.20;3.47;;;8.90;99.90;;;7.90;100.00;97291.84;5043813;28;20509;-72
2022/11/24 09:21:30;;;;;;;18.23;2.92;;;8.90;99.90;;;8.12;100.00;97273.81;5046745;28;20484;-72
2022/11/24 09:23:57;;;;;;;23.58;3.97;;;8.90;99.90;;;7.65;100.00;97286.72;5046490;28;20049;-71
2022/11/24 09:26:27;;;;;;;20.13;2.90;;;8.90;99.90;;;7.73;100.00;97279.53;5048394;28;20049;-71
2022/11/24 09:28:56;;;;;;;20.75;2.70;;;8.80;99.90;;;7.72;100.00;97297.69;5046040;28;20390;-71
2022/11/24 09:31:27;;;;;;;21.40;2.65;;;8.80;99.90;;;7.69;100.00;97292.63;5036760;28;20067;-71
2022/11/24 09:33:54;;;;;;;20.45;2.42;;;8.70;99.90;;;7.75;100.00;97300.13;5048009;28;20103;-70
2022/11/24 09:36:22;;;;;;;24.60;3.88;;;8.70;99.90;;;7.54;100.00;97309.50;5046947;28;20051;-72
2022/11/24 09:38:49;;;;;;;14.95;2.75;;;8.60;99.90;;;7.73;100.00;97302.78;5043412;28;20371;-72
2022/11/24 09:41:16;;;;;;;19.13;2.72;;;8.60;99.90;;;7.90;100.00;97298.75;5049207;28;20153;-70
2022/11/24 09:44:16;;;;;;;20.95;3.67;;;8.60;99.90;;;7.70;100.00;97302.88;5047135;28;20056;-71
2022/11/24 09:46:58;;;;;;;16.83;2.72;;;8.70;99.90;;;7.79;100.00;97306.88;5047892;28;20460;-72
2022/11/24 09:49:45;;;;;;;16.67;2.92;;;8.60;99.90;;;7.71;100.00;97309.75;5029125;28;20041;-71
2022/11/24 09:52:42;;;;;;;19.80;2.80;;;8.60;99.90;;;7.62;100.00;97314.38;5061038;28;20103;-70
2022/11/24 09:55:32;;;;;;;16.83;3.70;;;8.50;99.90;;;7.59;100.00;97317.91;5044869;28;20080;-70
2022/11/24 09:58:43;;;;;;;18.75;2.10;;;8.50;99.90;;;7.61;100.00;97323.88;5045544;28;20056;-71
2022/11/24 10:01:30;;;;;;;14.43;2.47;;;8.50;99.90;;;7.67;100.00;97328.00;5044996;28;20204;-72
2022/11/24 10:03:58;;;;;;;14.60;2.35;;;8.40;99.90;;;7.74;100.00;97325.13;5045612;28;20053;-71
2022/11/24 10:06:58;;;;;;;17.63;2.65;;;8.50;99.90;;;7.66;100.00;97334.91;5039694;28;20045;-71
2022/11/24 10:09:55;;;;;;;15.77;2.33;;;8.50;99.90;;;7.83;100.00;97323.97;5040788;28;20609;-71
2022/11/24 10:12:58;;;;;;;17.63;2.55;;;8.60;99.90;;;7.80;100.00;97321.50;5042211;28;20045;-71
2022/11/24 10:15:46;;;;;;;16.75;3.22;;;8.60;99.90;;;7.78;100.00;97332.78;5045131;28;20049;-71
2022/11/24 10:18:27;;;;;;;16.00;2.78;;;8.60;99.90;;;7.85;100.00;97329.94;5042990;28;20056;-70
2022/11/24 10:21:38;;;;;;;21.20;2.88;;;8.80;99.90;;;7.98;100.00;97343.25;5044107;28;20055;-71
2022/11/24 10:25:05;;;;;;;13.48;2.72;;;8.90;99.90;;;7.96;100.00;97343.31;5046572;28;20068;-71
2022/11/24 10:27:42;;;;;;;14.43;2.22;;;8.90;99.90;;;8.14;100.00;97349.56;5038958;28;20060;-70
2022/11/24 10:30:19;;;;;;;19.50;2.83;;;9.00;99.90;;;8.31;100.00;97351.53;5041919;28;20050;-71
2022/11/24 10:32:57;;;;;;;17.45;2.83;;;9.10;99.90;;;8.39;100.00;97353.81;5044158;28;20060;-71
2022/11/24 10:36:12;;;;;;;17.25;2.60;;;9.40;99.90;;;8.56;100.00;97345.47;5045044;28;20596;-71
2022/11/24 10:39:20;;;;;;;14.65;2.65;;;9.50;99.90;;;8.38;100.00;97357.31;5025923;28;20049;-72
2022/11/24 10:41:59;;;;;;;13.98;2.50;;;9.60;99.90;;;8.46;100.00;97360.50;5027229;28;20136;-71